Time;durP1;ratioP1;P1;durP2;ratioP2;P2;SDS_P1;SDS_P2;PMS_P1;PMS_P2;Temp;Humidity;BMP_temperature;BMP_pressure;BME280_temperature;BME280_humidity;BME280_pressure;Samples;Min_cycle;Max_cycle;Signal;HPM_P1;HPM_P2
2022/01/29 00:01:42;;;;;;;1999.90;999.90;;;;;;;-0.83;57.77;102328.22;4959952;28;98496;-70
2022/01/29 00:04:11;;;;;;;1999.90;999.90;;;;;;;-0.84;57.45;102323.75;4959678;28;100827;-70
2022/01/29 00:06:39;;;;;;;1999.90;999.90;;;;;;;-0.87;57.40;102307.81;4959741;28;98500;-70
2022/01/29 00:09:08;;;;;;;1999.90;999.90;;;;;;;-0.91;57.25;102292.63;4961619;28;97156;-71
2022/01/29 00:11:36;;;;;;;1999.90;999.90;;;;;;;-0.92;57.45;102291.69;4962190;28;97518;-70
2022/01/29 00:14:06;;;;;;;1999.90;999.90;;;;;;;-0.96;57.47;102284.34;4957472;28;98938;-71
2022/01/29 00:16:34;;;;;;;1999.90;999.90;;;;;;;-1.01;57.27;102274.25;4953771;28;98470;-70
2022/01/29 00:19:02;;;;;;;1999.90;999.90;;;;;;;-1.02;57.32;102272.44;4955000;28;99195;-71
2022/01/29 00:21:29;;;;;;;1999.90;999.90;;;;;;;-1.03;57.64;102268.00;4954604;28;97310;-71
2022/01/29 00:23:57;;;;;;;1999.90;999.90;;;;;;;-1.04;57.73;102266.16;4954511;28;98285;-70
2022/01/29 00:26:27;;;;;;;1999.90;999.90;;;;;;;-1.06;57.43;102276.47;4940067;28;98471;-70
2022/01/29 00:28:56;;;;;;;1999.90;999.90;;;;;;;-1.06;57.07;102272.94;4955378;28;97778;-71
2022/01/29 00:31:25;;;;;;;1999.90;999.90;;;;;;;-1.07;57.40;102265.88;4960091;28;98058;-71
2022/01/29 00:33:53;;;;;;;1999.90;999.90;;;;;;;-1.09;57.16;102267.44;4959140;28;98299;-71
2022/01/29 00:36:21;;;;;;;1999.90;999.90;;;;;;;-1.09;57.59;102264.81;4959993;28;99572;-71
2022/01/29 00:38:48;;;;;;;1999.90;999.90;;;;;;;-1.07;57.54;102261.56;4943883;28;96781;-71
2022/01/29 00:41:16;;;;;;;1999.90;999.90;;;;;;;-1.06;57.08;102259.88;4959235;28;97061;-71
2022/01/29 00:43:44;;;;;;;1999.90;999.90;;;;;;;-1.08;57.59;102254.50;4961558;28;98023;-71
2022/01/29 00:46:11;;;;;;;1999.90;999.90;;;;;;;-1.08;57.20;102250.97;4976801;28;98730;-71
2022/01/29 00:48:41;;;;;;;1999.90;999.90;;;;;;;-1.09;57.53;102251.75;4959825;28;97326;-70
2022/01/29 00:51:08;;;;;;;1999.90;999.90;;;;;;;-1.06;57.72;102246.81;4962890;28;97733;-71
2022/01/29 00:53:36;;;;;;;1999.90;999.90;;;;;;;-1.03;57.54;102244.50;4954666;28;99315;-71
2022/01/29 00:56:06;;;;;;;1999.90;999.90;;;;;;;-1.02;57.31;102233.25;4957219;28;98720;-71
2022/01/29 00:58:34;;;;;;;1999.90;999.90;;;;;;;-1.00;57.35;102216.03;4958764;28;96768;-71
2022/01/29 01:01:02;;;;;;;1999.90;999.90;;;;;;;-0.97;57.33;102222.44;4960961;28;96983;-71
2022/01/29 01:03:30;;;;;;;1999.90;999.90;;;;;;;-0.95;57.10;102214.72;4957435;28;100878;-72
2022/01/29 01:05:59;;;;;;;1999.90;999.90;;;;;;;-0.95;57.23;102206.91;4958828;28;98488;-71
2022/01/29 01:08:27;;;;;;;1999.90;999.90;;;;;;;-0.94;56.96;102204.41;4961866;28;97870;-71
2022/01/29 01:10:55;;;;;;;1999.90;999.90;;;;;;;-0.92;57.16;102197.63;4975012;28;96859;-71
2022/01/29 01:13:23;;;;;;;1999.90;999.90;;;;;;;-0.93;56.84;102194.88;4962577;28;100608;-70
2022/01/29 01:15:51;;;;;;;1999.90;999.90;;;;;;;-0.91;57.37;102188.09;4955133;28;99619;-71
2022/01/29 01:18:19;;;;;;;1999.90;999.90;;;;;;;-0.91;57.42;102182.88;4962437;28;97218;-71
2022/01/29 01:20:46;;;;;;;1999.90;999.90;;;;;;;-0.89;57.17;102178.72;4961154;28;97186;-70
2022/01/29 01:23:15;;;;;;;1999.90;999.90;;;;;;;-0.91;57.23;102175.03;4964274;28;100791;-71
2022/01/29 01:25:43;;;;;;;1999.90;999.90;;;;;;;-0.88;57.53;102167.47;4967509;28;98251;-71
2022/01/29 01:28:11;;;;;;;1999.90;999.90;;;;;;;-0.86;57.04;102159.00;4963901;28;97449;-71
2022/01/29 01:30:39;;;;;;;1999.90;999.90;;;;;;;-0.87;57.31;102159.75;4945785;28;99242;-71
2022/01/29 01:33:07;;;;;;;1999.90;999.90;;;;;;;-0.87;57.16;102154.53;4958673;28;99415;-71
2022/01/29 01:35:40;;;;;;;1999.90;999.90;;;;;;;-0.86;57.22;102151.16;4957809;28;98693;-71
2022/01/29 01:38:13;;;;;;;1999.90;999.90;;;;;;;-0.87;57.10;102141.47;4960874;28;97936;-71
2022/01/29 01:40:47;;;;;;;1999.90;999.90;;;;;;;-0.85;57.12;102145.13;4957326;28;98073;-71
2022/01/29 01:43:15;;;;;;;1999.90;999.90;;;;;;;-0.84;57.01;102135.59;4961588;28;98844;-71
2022/01/29 01:45:43;;;;;;;1999.90;999.90;;;;;;;-0.82;57.23;102126.22;4961916;28;99104;-70
2022/01/29 01:48:11;;;;;;;1999.90;999.90;;;;;;;-0.78;57.39;102118.75;4954945;28;98287;-70
2022/01/29 01:50:39;;;;;;;1999.90;999.90;;;;;;;-0.78;56.85;102110.03;4958253;28;98928;-70
2022/01/29 01:53:07;;;;;;;1999.90;999.90;;;;;;;-0.79;57.40;102120.34;4958515;28;98454;-71
2022/01/29 01:55:35;;;;;;;1999.90;999.90;;;;;;;-0.78;57.20;102107.41;4945892;28;98221;-70
2022/01/29 01:58:04;;;;;;;1999.90;999.90;;;;;;;-0.75;57.11;102102.44;4960818;28;96231;-70
2022/01/29 02:00:33;;;;;;;1999.90;999.90;;;;;;;-0.70;57.19;102098.53;4962068;28;96807;-71
2022/01/29 02:03:01;;;;;;;1999.90;999.90;;;;;;;-0.69;57.08;102091.59;4963339;28;98726;-71
2022/01/29 02:05:29;;;;;;;1999.90;999.90;;;;;;;-0.68;57.34;102104.78;4961768;28;98754;-71
2022/01/29 02:07:58;;;;;;;1999.90;999.90;;;;;;;-0.65;56.95;102093.69;4963143;28;97869;-70
2022/01/29 02:10:27;;;;;;;1999.90;999.90;;;;;;;-0.62;57.18;102089.66;4966048;28;97027;-70
2022/01/29 02:12:59;;;;;;;1999.90;999.90;;;;;;;-0.59;57.11;102092.53;4962837;28;98995;-71
2022/01/29 02:15:28;;;;;;;1999.90;999.90;;;;;;;-0.57;56.90;102087.41;4963384;28;97971;-70
2022/01/29 02:17:56;;;;;;;1999.90;999.90;;;;;;;-0.56;57.04;102076.19;4966514;28;96846;-71
2022/01/29 02:20:26;;;;;;;1999.90;999.90;;;;;;;-0.58;57.07;102065.63;4946954;28;97722;-71
2022/01/29 02:22:56;;;;;;;1999.90;999.90;;;;;;;-0.57;57.31;102056.97;4945741;28;99686;-71
2022/01/29 02:25:31;;;;;;;1999.90;999.90;;;;;;;-0.54;56.95;102052.03;4963677;28;98168;-71
2022/01/29 02:28:00;;;;;;;1999.90;999.90;;;;;;;-0.47;57.38;102038.69;4963089;28;96894;-71
2022/01/29 02:30:32;;;;;;;1999.90;999.90;;;;;;;-0.42;57.18;102039.06;4964424;28;98003;-71
2022/01/29 02:33:00;;;;;;;1999.90;999.90;;;;;;;-0.44;57.12;102028.47;4964378;28;99343;-71
2022/01/29 02:35:28;;;;;;;1999.90;999.90;;;;;;;-0.41;57.25;102022.59;4962315;28;97657;-70
2022/01/29 02:37:57;;;;;;;1999.90;999.90;;;;;;;-0.42;57.31;102016.47;4963551;28;99680;-70
2022/01/29 02:40:26;;;;;;;1999.90;999.90;;;;;;;-0.42;57.29;102007.69;4963549;28;100316;-71
2022/01/29 02:42:55;;;;;;;1999.90;999.90;;;;;;;-0.40;57.20;101996.59;4964399;28;97875;-71
2022/01/29 02:45:26;;;;;;;1999.90;999.90;;;;;;;-0.39;57.25;101994.91;4944762;28;99391;-71
2022/01/29 02:47:54;;;;;;;1999.90;999.90;;;;;;;-0.37;57.18;101988.97;4960909;28;98014;-71
2022/01/29 02:50:22;;;;;;;1999.90;999.90;;;;;;;-0.36;57.17;101983.00;4959347;28;97827;-69
2022/01/29 02:52:49;;;;;;;1999.90;999.90;;;;;;;-0.34;57.03;101981.41;4975989;28;97951;-70
2022/01/29 02:55:18;;;;;;;1999.90;999.90;;;;;;;-0.34;57.20;101973.56;4944217;28;101350;-69
2022/01/29 02:57:46;;;;;;;1999.90;999.90;;;;;;;-0.34;57.12;101963.13;4959407;28;97647;-72
2022/01/29 03:00:15;;;;;;;1999.90;999.90;;;;;;;-0.32;57.41;101953.66;4957602;28;97516;-72
2022/01/29 03:02:43;;;;;;;1999.90;999.90;;;;;;;-0.31;57.46;101955.50;4957773;28;99319;-72
2022/01/29 03:05:10;;;;;;;1999.90;999.90;;;;;;;-0.32;57.10;101950.16;4959815;28;101338;-71
2022/01/29 03:07:38;;;;;;;1999.90;999.90;;;;;;;-0.31;57.52;101947.66;4957096;28;97494;-71
2022/01/29 03:10:07;;;;;;;1999.90;999.90;;;;;;;-0.29;57.32;101940.88;4975017;28;98530;-71
2022/01/29 03:12:40;;;;;;;1999.90;999.90;;;;;;;-0.28;57.53;101932.22;4962929;28;98157;-71
2022/01/29 03:15:09;;;;;;;1999.90;999.90;;;;;;;-0.25;57.24;101935.09;4960676;28;97769;-71
2022/01/29 03:17:37;;;;;;;1999.90;999.90;;;;;;;-0.22;57.40;101918.72;4960475;28;98970;-71
2022/01/29 03:20:06;;;;;;;1999.90;999.90;;;;;;;-0.23;57.36;101925.66;4960648;28;100400;-71
2022/01/29 03:22:35;;;;;;;1999.90;999.90;;;;;;;-0.24;57.25;101921.22;4958059;28;99860;-71
2022/01/29 03:25:04;;;;;;;1999.90;999.90;;;;;;;-0.22;57.35;101916.13;4960603;28;99709;-71
2022/01/29 03:27:32;;;;;;;1999.90;999.90;;;;;;;-0.23;57.62;101904.72;4961215;28;97397;-71
2022/01/29 03:30:01;;;;;;;1999.90;999.90;;;;;;;-0.24;57.45;101910.78;4961545;28;97260;-70
2022/01/29 03:32:29;;;;;;;1999.90;999.90;;;;;;;-0.21;57.67;101903.16;4944930;28;99473;-69
2022/01/29 03:34:57;;;;;;;1999.90;999.90;;;;;;;-0.19;57.48;101888.50;4963007;28;99265;-70
2022/01/29 03:37:24;;;;;;;1999.90;999.90;;;;;;;-0.20;57.58;101894.53;4944839;28;98665;-70
2022/01/29 03:39:57;;;;;;;1999.90;999.90;;;;;;;-0.22;57.53;101895.19;4959773;28;96871;-70
2022/01/29 03:42:26;;;;;;;1999.90;999.90;;;;;;;-0.23;57.58;101889.03;4959904;28;98918;-70
2022/01/29 03:44:54;;;;;;;1999.90;999.90;;;;;;;-0.21;57.74;101887.47;4978134;28;98844;-70
2022/01/29 03:47:24;;;;;;;1999.90;999.90;;;;;;;-0.21;57.81;101886.56;4961223;28;97263;-70
2022/01/29 03:49:51;;;;;;;1999.90;999.90;;;;;;;-0.23;58.03;101883.81;4960681;28;97546;-71
2022/01/29 03:52:19;;;;;;;1999.90;999.90;;;;;;;-0.25;57.77;101879.25;4959281;28;98047;-71
2022/01/29 03:54:47;;;;;;;1999.90;999.90;;;;;;;-0.27;57.77;101887.00;4957230;28;97804;-71
2022/01/29 03:57:15;;;;;;;1999.90;999.90;;;;;;;-0.25;57.49;101884.50;4940498;28;98846;-70
2022/01/29 03:59:42;;;;;;;1999.90;999.90;;;;;;;-0.25;57.68;101880.19;4965662;28;98088;-71
2022/01/29 04:02:10;;;;;;;1999.90;999.90;;;;;;;-0.25;57.89;101869.72;4964402;28;99567;-71
2022/01/29 04:04:40;;;;;;;1999.90;999.90;;;;;;;-0.27;57.75;101860.84;4960517;28;98338;-71
2022/01/29 04:07:11;;;;;;;1999.90;999.90;;;;;;;-0.28;57.97;101861.59;4958029;28;97017;-71
2022/01/29 04:09:39;;;;;;;1999.90;999.90;;;;;;;-0.30;58.21;101855.34;4959498;28;96905;-70
2022/01/29 04:12:09;;;;;;;1999.90;999.90;;;;;;;-0.30;57.85;101849.22;4955120;28;98476;-71
2022/01/29 04:14:39;;;;;;;1999.90;999.90;;;;;;;-0.34;58.17;101845.44;4961513;28;98182;-71
2022/01/29 04:17:07;;;;;;;1999.90;999.90;;;;;;;-0.33;58.20;101841.09;4960284;28;96840;-71
2022/01/29 04:19:35;;;;;;;1999.90;999.90;;;;;;;-0.35;58.15;101834.81;4961948;28;96814;-71
2022/01/29 04:22:05;;;;;;;1999.90;999.90;;;;;;;-0.35;58.34;101827.91;4961229;28;98967;-70
2022/01/29 04:24:34;;;;;;;1999.90;999.90;;;;;;;-0.33;58.27;101822.78;4958921;28;100503;-70
2022/01/29 04:27:04;;;;;;;1999.90;999.90;;;;;;;-0.31;58.21;101818.59;4960337;28;98914;-71
2022/01/29 04:29:41;;;;;;;1999.90;999.90;;;;;;;-0.34;58.49;101808.84;4961229;28;96912;-69
2022/01/29 04:32:13;;;;;;;1999.90;999.90;;;;;;;-0.34;58.43;101806.22;4954784;28;99445;-70
2022/01/29 04:34:41;;;;;;;1999.90;999.90;;;;;;;-0.34;58.67;101794.84;4959982;28;99485;-71
2022/01/29 04:37:10;;;;;;;1999.90;999.90;;;;;;;-0.35;58.79;101787.75;4958565;28;98827;-70
2022/01/29 04:39:38;;;;;;;1999.90;999.90;;;;;;;-0.34;58.94;101785.31;4944758;28;97414;-71
2022/01/29 04:42:06;;;;;;;1999.90;999.90;;;;;;;-0.33;58.74;101780.97;4957229;28;98714;-71
2022/01/29 04:44:34;;;;;;;1999.90;999.90;;;;;;;-0.34;59.21;101774.84;4958419;28;96833;-70
2022/01/29 04:47:02;;;;;;;1999.90;999.90;;;;;;;-0.35;59.31;101770.38;4959328;28;97157;-70
2022/01/29 04:49:29;;;;;;;1999.90;999.90;;;;;;;-0.35;59.25;101773.00;4976967;28;96862;-70
2022/01/29 04:51:57;;;;;;;1999.90;999.90;;;;;;;-0.36;59.15;101759.81;4962119;28;97739;-70
2022/01/29 04:54:27;;;;;;;1999.90;999.90;;;;;;;-0.34;59.27;101747.75;4957754;28;100817;-70
2022/01/29 04:56:54;;;;;;;1999.90;999.90;;;;;;;-0.36;59.53;101752.88;4956177;28;96854;-69
2022/01/29 04:59:22;;;;;;;1999.90;999.90;;;;;;;-0.37;59.13;101744.88;4959406;28;97176;-70
2022/01/29 05:01:51;;;;;;;1999.90;999.90;;;;;;;-0.39;59.25;101739.53;4960470;28;98010;-69
2022/01/29 05:04:18;;;;;;;1999.90;999.90;;;;;;;-0.42;59.95;101743.63;4960193;28;99197;-70
2022/01/29 05:06:46;;;;;;;1999.90;999.90;;;;;;;-0.47;60.33;101724.03;4960889;28;97489;-70
2022/01/29 05:09:14;;;;;;;1999.90;999.90;;;;;;;-0.48;60.24;101720.50;4970248;28;97996;-68
2022/01/29 05:11:46;;;;;;;1999.90;999.90;;;;;;;-0.45;59.82;101719.84;4953799;28;97898;-71
2022/01/29 05:14:23;;;;;;;1999.90;999.90;;;;;;;-0.45;59.73;101719.84;4970884;28;100869;-70
2022/01/29 05:17:19;;;;;;;1999.90;999.90;;;;;;;-0.42;59.51;101707.94;4967463;28;96759;-70
2022/01/29 05:28:10;;;;;;;1999.90;999.90;;;;;;;-0.40;59.77;101680.22;4956962;28;97233;-71
2022/01/29 05:30:38;;;;;;;1999.90;999.90;;;;;;;-0.37;59.98;101669.06;4964415;28;97439;-70
2022/01/29 05:33:06;;;;;;;1999.90;999.90;;;;;;;-0.33;59.61;101665.91;4964249;28;99688;-70
2022/01/29 05:35:33;;;;;;;1999.90;999.90;;;;;;;-0.30;59.95;101668.78;4962898;28;98113;-69
2022/01/29 05:38:01;;;;;;;1999.90;999.90;;;;;;;-0.30;59.73;101656.59;4965738;28;97547;-72
2022/01/29 05:40:29;;;;;;;1999.90;999.90;;;;;;;-0.37;60.79;101643.84;4965497;28;99336;-71
2022/01/29 05:42:56;;;;;;;1999.90;999.90;;;;;;;-0.41;60.43;101628.69;4960730;28;100457;-71
2022/01/29 05:45:26;;;;;;;1999.90;999.90;;;;;;;-0.47;61.10;101641.31;4962970;28;97966;-71
2022/01/29 05:47:53;;;;;;;1999.90;999.90;;;;;;;-0.51;61.55;101644.47;4963470;28;97455;-71
2022/01/29 05:50:21;;;;;;;1999.90;999.90;;;;;;;-0.51;60.93;101630.47;4962954;28;98591;-72
2022/01/29 05:52:49;;;;;;;1999.90;999.90;;;;;;;-0.55;61.90;101610.09;4958501;28;98928;-71
2022/01/29 05:55:17;;;;;;;1999.90;999.90;;;;;;;-0.58;61.96;101610.78;4961143;28;99157;-72
2022/01/29 05:57:44;;;;;;;1999.90;999.90;;;;;;;-0.60;62.11;101607.16;4960583;28;96934;-72
2022/01/29 06:00:13;;;;;;;1999.90;999.90;;;;;;;-0.59;61.46;101598.50;4965911;28;97066;-71
2022/01/29 06:02:45;;;;;;;1999.90;999.90;;;;;;;-0.57;61.39;101593.38;4960161;28;98947;-72
2022/01/29 06:05:13;;;;;;;1999.90;999.90;;;;;;;-0.57;62.03;101590.78;4958017;28;100385;-72
2022/01/29 06:07:41;;;;;;;1999.90;999.90;;;;;;;-0.57;62.04;101588.16;4961029;28;96984;-72
2022/01/29 06:10:09;;;;;;;1999.90;999.90;;;;;;;-0.54;61.51;101581.50;4964067;28;98748;-73
2022/01/29 06:12:37;;;;;;;1999.90;999.90;;;;;;;-0.53;61.17;101583.31;4943149;28;97756;-72
2022/01/29 06:15:06;;;;;;;1999.90;999.90;;;;;;;-0.51;61.48;101586.03;4962212;28;97667;-72
2022/01/29 06:17:34;;;;;;;1999.90;999.90;;;;;;;-0.50;61.17;101575.69;4961733;28;98088;-71
2022/01/29 06:20:03;;;;;;;1999.90;999.90;;;;;;;-0.49;61.10;101585.38;4962173;28;98083;-71
2022/01/29 06:22:32;;;;;;;1999.90;999.90;;;;;;;-0.49;61.38;101577.53;4956804;28;98782;-72
2022/01/29 06:25:00;;;;;;;1999.90;999.90;;;;;;;-0.46;61.51;101571.63;4961547;28;99243;-72
2022/01/29 06:27:27;;;;;;;1999.90;999.90;;;;;;;-0.43;61.13;101564.91;4960597;28;97190;-71
2022/01/29 06:29:55;;;;;;;1999.90;999.90;;;;;;;-0.41;61.04;101565.94;4959718;28;96814;-71
2022/01/29 06:32:23;;;;;;;1999.90;999.90;;;;;;;-0.39;61.23;101553.91;4958433;28;99001;-70
2022/01/29 06:34:51;;;;;;;1999.90;999.90;;;;;;;-0.38;61.27;101553.13;4960659;28;99090;-71
2022/01/29 06:37:20;;;;;;;1999.90;999.90;;;;;;;-0.42;61.93;101551.06;4961840;28;97555;-71
2022/01/29 06:39:50;;;;;;;1999.90;999.90;;;;;;;-0.40;61.58;101543.34;4963762;28;98961;-71
2022/01/29 06:42:17;;;;;;;1999.90;999.90;;;;;;;-0.40;61.76;101543.34;4958196;28;100730;-71
2022/01/29 06:44:45;;;;;;;1999.90;999.90;;;;;;;-0.41;61.82;101552.00;4958662;28;98010;-70
2022/01/29 06:47:13;;;;;;;1999.90;999.90;;;;;;;-0.39;61.52;101548.69;4960721;28;97143;-70
2022/01/29 06:49:40;;;;;;;1999.90;999.90;;;;;;;-0.40;61.96;101548.56;4961720;28;98730;-71
2022/01/29 06:52:08;;;;;;;1999.90;999.90;;;;;;;-0.35;61.64;101547.22;4963402;28;98913;-73
2022/01/29 06:54:37;;;;;;;1999.90;999.90;;;;;;;-0.31;61.28;101530.97;4962087;28;97919;-71
2022/01/29 06:57:06;;;;;;;1999.90;999.90;;;;;;;-0.29;61.41;101532.91;4960891;28;99243;-71
2022/01/29 06:59:33;;;;;;;1999.90;999.90;;;;;;;-0.29;61.20;101524.16;4960665;28;97272;-71
2022/01/29 07:02:01;;;;;;;1999.90;999.90;;;;;;;-0.28;61.02;101521.66;4962003;28;98961;-70
2022/01/29 07:04:29;;;;;;;1999.90;999.90;;;;;;;-0.22;61.25;101523.81;4960441;28;98129;-71
2022/01/29 07:06:57;;;;;;;1999.90;999.90;;;;;;;-0.24;61.71;101501.88;4959410;28;97389;-72
2022/01/29 07:09:25;;;;;;;1999.90;999.90;;;;;;;-0.23;61.15;101496.75;4961746;28;97212;-72
2022/01/29 07:11:57;;;;;;;1999.90;999.90;;;;;;;-0.21;61.24;101500.38;4959639;28;97649;-72
2022/01/29 07:14:24;;;;;;;1999.90;999.90;;;;;;;-0.19;61.58;101505.75;4958976;28;98828;-71
2022/01/29 07:16:52;;;;;;;1999.90;999.90;;;;;;;-0.18;61.46;101508.50;4959218;28;98371;-71
2022/01/29 07:19:20;;;;;;;1999.90;999.90;;;;;;;-0.14;61.43;101507.94;4959922;28;97275;-71
2022/01/29 07:21:48;;;;;;;1999.90;999.90;;;;;;;-0.11;61.13;101502.00;4945117;28;99665;-71
2022/01/29 07:24:15;;;;;;;1999.90;999.90;;;;;;;-0.07;61.24;101509.28;4958381;28;99251;-71
2022/01/29 07:26:43;;;;;;;1999.90;999.90;;;;;;;-0.06;61.42;101504.16;4956669;28;98001;-71
2022/01/29 07:29:12;;;;;;;1999.90;999.90;;;;;;;-0.05;61.34;101497.25;4957659;28;98487;-72
2022/01/29 07:31:40;;;;;;;1999.90;999.90;;;;;;;-0.04;61.81;101499.97;4955660;28;98702;-71
2022/01/29 07:34:07;;;;;;;1999.90;999.90;;;;;;;0.00;61.39;101486.31;4959314;28;97697;-71
2022/01/29 07:36:35;;;;;;;1999.90;999.90;;;;;;;0.01;61.41;101480.28;4961294;28;99045;-71
2022/01/29 07:39:03;;;;;;;1999.90;999.90;;;;;;;0.05;61.61;101482.31;4959054;28;97614;-72
2022/01/29 07:41:31;;;;;;;1999.90;999.90;;;;;;;0.08;61.42;101463.34;4957204;28;98315;-72
2022/01/29 07:44:01;;;;;;;1999.90;999.90;;;;;;;0.12;61.32;101471.50;4954258;28;98921;-72
2022/01/29 07:46:30;;;;;;;1999.90;999.90;;;;;;;0.14;61.53;101459.44;4955880;28;98192;-72
2022/01/29 07:48:58;;;;;;;1999.90;999.90;;;;;;;0.18;62.13;101471.06;4956826;28;98779;-72
2022/01/29 07:51:26;;;;;;;1999.90;999.90;;;;;;;0.21;62.04;101461.72;4938252;28;98948;-72
2022/01/29 07:53:54;;;;;;;1999.90;999.90;;;;;;;0.23;62.45;101464.44;4958270;28;97674;-72
2022/01/29 07:56:22;;;;;;;1999.90;999.90;;;;;;;0.29;62.40;101453.53;4958887;28;97787;-72
2022/01/29 07:58:49;;;;;;;1999.90;999.90;;;;;;;0.32;62.17;101453.78;4961632;28;98690;-71
2022/01/29 08:01:17;;;;;;;1999.90;999.90;;;;;;;0.35;61.80;101452.31;4957437;28;98079;-72
2022/01/29 08:03:48;;;;;;;1999.90;999.90;;;;;;;0.40;61.75;101465.69;4958758;28;98045;-72
2022/01/29 08:06:17;;;;;;;1999.90;999.90;;;;;;;0.43;62.21;101458.97;4942369;28;97702;-73
2022/01/29 08:08:45;;;;;;;1999.90;999.90;;;;;;;0.46;62.16;101458.31;4957388;28;97762;-73
2022/01/29 08:11:13;;;;;;;1999.90;999.90;;;;;;;0.45;62.74;101441.69;4955787;28;100668;-71
2022/01/29 08:13:41;;;;;;;1999.90;999.90;;;;;;;0.49;62.24;101443.72;4954785;28;99063;-71
2022/01/29 08:16:11;;;;;;;1999.90;999.90;;;;;;;0.50;62.45;101429.84;4948537;28;97483;-72
2022/01/29 08:18:42;;;;;;;1999.90;999.90;;;;;;;0.54;62.58;101441.44;4952800;28;97403;-72
2022/01/29 08:21:11;;;;;;;1999.90;999.90;;;;;;;0.57;62.97;101425.94;4928180;28;99299;-72
2022/01/29 08:23:40;;;;;;;1999.90;999.90;;;;;;;0.60;62.24;101421.84;4941400;28;99066;-70
2022/01/29 08:26:09;;;;;;;1999.90;999.90;;;;;;;0.63;62.74;101442.09;4957246;28;97827;-71
2022/01/29 08:28:38;;;;;;;1999.90;999.90;;;;;;;0.69;62.44;101425.09;4939798;28;98704;-70
2022/01/29 08:31:06;;;;;;;1999.90;999.90;;;;;;;0.73;61.77;101435.00;4962641;28;99421;-71
2022/01/29 08:33:36;;;;;;;1999.90;999.90;;;;;;;0.76;61.52;101429.97;4958173;28;99404;-71
2022/01/29 08:36:05;;;;;;;1999.90;999.90;;;;;;;0.77;62.24;101407.31;4959024;28;98212;-71
2022/01/29 08:38:34;;;;;;;1999.90;999.90;;;;;;;0.80;62.05;101441.56;4956297;28;97306;-70
2022/01/29 08:41:03;;;;;;;1999.90;999.90;;;;;;;0.80;62.88;101436.31;4941214;28;98184;-71
2022/01/29 08:43:32;;;;;;;1999.90;999.90;;;;;;;1.13;61.41;101428.19;4961041;28;99238;-69
2022/01/29 08:46:00;;;;;;;1999.90;999.90;;;;;;;1.33;61.42;101420.00;4962523;28;98086;-73
2022/01/29 08:48:28;;;;;;;1999.90;999.90;;;;;;;1.47;61.46;101421.81;4959431;28;98676;-70
2022/01/29 08:50:56;;;;;;;1999.90;999.90;;;;;;;1.60;61.78;101420.97;4957381;28;99804;-69
2022/01/29 08:53:24;;;;;;;1999.90;999.90;;;;;;;1.36;62.24;101411.44;4962356;28;99563;-70
2022/01/29 08:55:58;;;;;;;1999.90;999.90;;;;;;;1.28;62.79;101416.16;4971655;28;99083;-71
2022/01/29 08:58:26;;;;;;;1999.90;999.90;;;;;;;1.57;61.57;101413.78;4972547;28;97399;-71
2022/01/29 09:00:53;;;;;;;1999.90;999.90;;;;;;;1.72;61.13;101413.88;4952876;28;100117;-71
2022/01/29 09:03:23;;;;;;;1999.90;999.90;;;;;;;1.46;62.94;101406.91;4953040;28;98831;-71
2022/01/29 09:05:51;;;;;;;1999.90;999.90;;;;;;;1.41;62.91;101402.16;4956278;28;98608;-71
2022/01/29 09:08:19;;;;;;;1999.90;999.90;;;;;;;1.38;62.67;101388.84;4951830;28;98884;-69
2022/01/29 09:10:47;;;;;;;1999.90;999.90;;;;;;;1.32;63.26;101383.19;4940151;28;99062;-70
2022/01/29 09:13:16;;;;;;;1999.90;999.90;;;;;;;1.63;61.94;101377.47;4958505;28;100925;-70
2022/01/29 09:15:44;;;;;;;1999.90;999.90;;;;;;;1.78;61.79;101357.47;4958238;28;98089;-70
2022/01/29 09:18:12;;;;;;;1999.90;999.90;;;;;;;1.93;61.45;101345.34;4950667;28;97575;-71
2022/01/29 09:20:42;;;;;;;1999.90;999.90;;;;;;;1.67;62.75;101378.59;4952105;28;98361;-71
2022/01/29 09:23:10;;;;;;;1999.90;999.90;;;;;;;1.58;62.77;101365.75;4953791;28;100274;-71
2022/01/29 09:25:38;;;;;;;1999.90;999.90;;;;;;;1.48;63.27;101359.78;4933670;28;97401;-71
2022/01/29 09:28:08;;;;;;;1999.90;999.90;;;;;;;1.45;63.08;101350.00;4974205;28;97665;-74
2022/01/29 09:30:37;;;;;;;1999.90;999.90;;;;;;;1.44;62.91;101349.91;4953880;28;99579;-71
2022/01/29 09:33:04;;;;;;;1999.90;999.90;;;;;;;1.39;63.21;101344.38;4957859;28;97161;-72
2022/01/29 09:35:32;;;;;;;1999.90;999.90;;;;;;;1.41;63.11;101352.34;4957596;28;97649;-73
2022/01/29 09:38:00;;;;;;;1999.90;999.90;;;;;;;1.36;63.88;101332.78;4958129;28;97975;-71
2022/01/29 09:40:29;;;;;;;1999.90;999.90;;;;;;;1.38;63.13;101346.91;4940129;28;99437;-70
2022/01/29 09:42:58;;;;;;;1999.90;999.90;;;;;;;1.38;63.47;101336.41;4959164;28;96648;-70
2022/01/29 09:45:27;;;;;;;1999.90;999.90;;;;;;;1.38;63.11;101332.06;4957506;28;96783;-69
2022/01/29 09:48:01;;;;;;;1999.90;999.90;;;;;;;1.37;63.87;101332.88;4957210;28;97642;-73
2022/01/29 09:50:31;;;;;;;1999.90;999.90;;;;;;;1.37;63.94;101327.63;4959822;28;99313;-70
2022/01/29 09:52:59;;;;;;;1999.90;999.90;;;;;;;1.41;63.16;101313.00;4959113;28;100453;-72
2022/01/29 09:55:29;;;;;;;1999.90;999.90;;;;;;;1.41;63.58;101341.84;4960718;28;98230;-71
2022/01/29 09:57:58;;;;;;;1999.90;999.90;;;;;;;1.45;63.36;101307.16;4956582;28;97730;-72
2022/01/29 10:00:26;;;;;;;1999.90;999.90;;;;;;;1.47;63.49;101334.41;4958142;28;98704;-72
2022/01/29 10:03:14;;;;;;;1999.90;999.90;;;;;;;1.45;63.26;101301.91;4957903;28;101399;-72
2022/01/29 10:05:44;;;;;;;1999.90;999.90;;;;;;;1.50;63.46;101330.25;4974094;28;96952;-71
2022/01/29 10:08:12;;;;;;;1999.90;999.90;;;;;;;1.53;62.58;101293.72;4960017;28;97906;-72
2022/01/29 10:10:42;;;;;;;1999.90;999.90;;;;;;;1.56;63.17;101301.78;4957507;28;98313;-72
2022/01/29 10:13:27;;;;;;;1999.90;999.90;;;;;;;1.54;63.83;101315.63;4954453;28;100511;-72
2022/01/29 10:16:08;;;;;;;1999.90;999.90;;;;;;;1.57;63.94;101290.50;4958459;28;99586;-71
2022/01/29 10:18:39;;;;;;;1999.90;999.90;;;;;;;1.56;64.03;101280.81;4962704;28;97071;-71
2022/01/29 10:21:11;;;;;;;1999.90;999.90;;;;;;;1.62;63.39;101289.09;4962671;28;97619;-72
2022/01/29 10:23:39;;;;;;;1999.90;999.90;;;;;;;1.66;63.26;101278.00;4956736;28;100298;-71
2022/01/29 10:26:09;;;;;;;1999.90;999.90;;;;;;;1.70;63.05;101269.53;4959555;28;97284;-73
2022/01/29 10:28:38;;;;;;;1999.90;999.90;;;;;;;1.71;62.61;101263.44;4959601;28;96922;-69
2022/01/29 10:31:07;;;;;;;1999.90;999.90;;;;;;;1.73;63.55;101251.34;4961346;28;98832;-71
2022/01/29 10:33:39;;;;;;;1999.90;999.90;;;;;;;1.76;62.17;101233.16;4960601;28;99804;-71
2022/01/29 10:36:08;;;;;;;1999.90;999.90;;;;;;;1.75;63.64;101241.84;4960604;28;96754;-70
2022/01/29 10:38:52;;;;;;;1999.90;999.90;;;;;;;1.77;63.30;101234.06;4957953;28;97239;-72
2022/01/29 10:41:24;;;;;;;1999.90;999.90;;;;;;;1.83;63.08;101251.13;4961711;28;98782;-71
2022/01/29 10:44:14;;;;;;;1999.90;999.90;;;;;;;1.85;63.32;101228.50;4958896;28;97547;-73
2022/01/29 10:46:45;;;;;;;1999.90;999.90;;;;;;;1.88;63.25;101236.56;4959826;28;97563;-73
2022/01/29 10:49:22;;;;;;;1999.90;999.90;;;;;;;1.89;63.49;101227.88;4958679;28;97416;-72
2022/01/29 10:52:05;;;;;;;1999.90;999.90;;;;;;;1.93;63.16;101242.09;4958486;28;102144;-72
2022/01/29 10:54:34;;;;;;;1999.90;999.90;;;;;;;1.95;62.97;101246.63;4961770;28;99157;-71
2022/01/29 10:57:04;;;;;;;1999.90;999.90;;;;;;;1.98;62.88;101220.56;4959139;28;96883;-69
2022/01/29 10:59:33;;;;;;;1999.90;999.90;;;;;;;2.01;62.80;101218.16;4961243;28;97712;-69
2022/01/29 11:02:02;;;;;;;1999.90;999.90;;;;;;;2.06;62.43;101216.72;4957603;28;101280;-72
2022/01/29 11:04:36;;;;;;;1999.90;999.90;;;;;;;2.09;62.79;101208.19;4956192;28;100657;-72
2022/01/29 11:07:09;;;;;;;1999.90;999.90;;;;;;;2.11;62.85;101212.69;4957387;28;97665;-70